sensor_id;sensor_type;location;lat;lon;timestamp;pressure;altitude;pressure_sealevel;temperature;humidity
68366;BME280;55283;51.466;5.478;2023-01-09T00:00:24;99247.47;;;20.28;49.20
68366;BME280;55283;51.466;5.478;2023-01-09T00:02:50;99256.13;;;20.30;49.03
68366;BME280;55283;51.466;5.478;2023-01-09T00:05:17;99245.88;;;20.27;49.32
68366;BME280;55283;51.466;5.478;2023-01-09T00:07:43;99253.06;;;20.28;49.18
68366;BME280;55283;51.466;5.478;2023-01-09T00:10:09;99243.59;;;20.25;49.19
68366;BME280;55283;51.466;5.478;2023-01-09T00:12:35;99253.50;;;20.26;49.26
68366;BME280;55283;51.466;5.478;2023-01-09T00:15:02;99264.41;;;20.24;49.05
68366;BME280;55283;51.466;5.478;2023-01-09T00:17:28;99263.06;;;20.20;49.25
68366;BME280;55283;51.466;5.478;2023-01-09T00:19:53;99267.50;;;20.26;49.16
68366;BME280;55283;51.466;5.478;2023-01-09T00:22:19;99263.63;;;20.24;49.11
68366;BME280;55283;51.466;5.478;2023-01-09T00:24:45;99265.16;;;20.25;49.10
68366;BME280;55283;51.466;5.478;2023-01-09T00:27:10;99276.38;;;20.25;48.93
68366;BME280;55283;51.466;5.478;2023-01-09T00:29:38;99272.22;;;20.20;49.10
68366;BME280;55283;51.466;5.478;2023-01-09T00:32:05;99271.25;;;20.23;49.11
68366;BME280;55283;51.466;5.478;2023-01-09T00:34:35;99269.22;;;20.24;49.10
68366;BME280;55283;51.466;5.478;2023-01-09T00:37:02;99258.34;;;20.26;48.92
68366;BME280;55283;51.466;5.478;2023-01-09T00:39:28;99264.91;;;20.23;49.08
68366;BME280;55283;51.466;5.478;2023-01-09T00:41:55;99268.75;;;20.25;49.04
68366;BME280;55283;51.466;5.478;2023-01-09T00:44:29;99281.97;;;20.25;48.56
68366;BME280;55283;51.466;5.478;2023-01-09T00:47:00;99281.19;;;20.24;48.84
68366;BME280;55283;51.466;5.478;2023-01-09T00:49:31;99278.13;;;20.22;48.89
68366;BME280;55283;51.466;5.478;2023-01-09T00:51:59;99274.41;;;20.16;48.96
68366;BME280;55283;51.466;5.478;2023-01-09T00:54:24;99286.50;;;20.22;49.04
68366;BME280;55283;51.466;5.478;2023-01-09T00:56:51;99276.56;;;20.21;48.82
68366;BME280;55283;51.466;5.478;2023-01-09T00:59:17;99284.47;;;20.23;48.81
68366;BME280;55283;51.466;5.478;2023-01-09T01:01:42;99280.13;;;20.22;48.89
68366;BME280;55283;51.466;5.478;2023-01-09T01:04:07;99287.28;;;20.23;48.97
68366;BME280;55283;51.466;5.478;2023-01-09T01:06:51;99284.47;;;20.23;48.90
68366;BME280;55283;51.466;5.478;2023-01-09T01:09:46;99281.06;;;20.19;48.71
68366;BME280;55283;51.466;5.478;2023-01-09T01:12:12;99279.22;;;20.16;49.03
68366;BME280;55283;51.466;5.478;2023-01-09T01:14:38;99278.28;;;20.19;48.85
68366;BME280;55283;51.466;5.478;2023-01-09T01:17:04;99283.88;;;20.19;48.98
68366;BME280;55283;51.466;5.478;2023-01-09T01:19:29;99285.44;;;20.20;48.96
68366;BME280;55283;51.466;5.478;2023-01-09T01:21:55;99293.66;;;20.23;48.90
68366;BME280;55283;51.466;5.478;2023-01-09T01:24:20;99285.44;;;20.20;48.67
68366;BME280;55283;51.466;5.478;2023-01-09T01:26:46;99286.38;;;20.17;48.51
68366;BME280;55283;51.466;5.478;2023-01-09T01:29:11;99296.91;;;20.22;48.86
68366;BME280;55283;51.466;5.478;2023-01-09T01:31:37;99296.00;;;20.16;48.69
68366;BME280;55283;51.466;5.478;2023-01-09T01:34:03;99294.09;;;20.22;48.83
68366;BME280;55283;51.466;5.478;2023-01-09T01:36:28;99295.06;;;20.19;48.80
68366;BME280;55283;51.466;5.478;2023-01-09T01:38:54;99302.22;;;20.20;48.52
68366;BME280;55283;51.466;5.478;2023-01-09T01:41:19;99300.66;;;20.19;48.58
68366;BME280;55283;51.466;5.478;2023-01-09T01:44:00;99314.00;;;20.24;48.68
68366;BME280;55283;51.466;5.478;2023-01-09T01:46:28;99316.97;;;20.20;48.96
68366;BME280;55283;51.466;5.478;2023-01-09T01:49:01;99308.78;;;20.17;49.22
68366;BME280;55283;51.466;5.478;2023-01-09T01:51:30;99316.78;;;20.24;48.77
68366;BME280;55283;51.466;5.478;2023-01-09T01:53:59;99304.06;;;20.23;48.53
68366;BME280;55283;51.466;5.478;2023-01-09T01:56:38;99309.16;;;20.24;48.46
68366;BME280;55283;51.466;5.478;2023-01-09T02:01:57;99300.50;;;20.22;48.51
68366;BME280;55283;51.466;5.478;2023-01-09T02:04:25;99305.28;;;20.22;48.54
68366;BME280;55283;51.466;5.478;2023-01-09T02:06:52;99309.34;;;20.21;48.66
68366;BME280;55283;51.466;5.478;2023-01-09T02:09:19;99322.09;;;20.22;48.89
68366;BME280;55283;51.466;5.478;2023-01-09T02:11:54;99314.19;;;20.20;48.72
68366;BME280;55283;51.466;5.478;2023-01-09T02:14:27;99320.53;;;20.21;48.78
68366;BME280;55283;51.466;5.478;2023-01-09T02:17:11;99322.28;;;20.18;48.85
68366;BME280;55283;51.466;5.478;2023-01-09T02:30:33;99307.22;;;20.16;48.68
68366;BME280;55283;51.466;5.478;2023-01-09T02:36:10;99305.19;;;20.16;48.67
68366;BME280;55283;51.466;5.478;2023-01-09T02:38:56;99305.47;;;20.18;48.79
68366;BME280;55283;51.466;5.478;2023-01-09T02:41:35;99300.84;;;20.15;48.86
68366;BME280;55283;51.466;5.478;2023-01-09T02:46:39;99311.56;;;20.17;48.79
68366;BME280;55283;51.466;5.478;2023-01-09T02:49:06;99303.94;;;20.17;48.87
68366;BME280;55283;51.466;5.478;2023-01-09T02:51:35;99303.94;;;20.17;48.79
68366;BME280;55283;51.466;5.478;2023-01-09T02:54:22;99301.63;;;20.16;48.72
68366;BME280;55283;51.466;5.478;2023-01-09T03:02:35;99296.97;;;20.12;48.92
68366;BME280;55283;51.466;5.478;2023-01-09T03:05:10;99282.41;;;20.08;48.72
68366;BME280;55283;51.466;5.478;2023-01-09T03:07:58;99280.19;;;20.12;48.98
68366;BME280;55283;51.466;5.478;2023-01-09T03:10:39;99284.25;;;20.11;48.84
68366;BME280;55283;51.466;5.478;2023-01-09T03:13:08;99285.00;;;20.12;48.61
68366;BME280;55283;51.466;5.478;2023-01-09T03:15:37;99284.25;;;20.11;48.79
68366;BME280;55283;51.466;5.478;2023-01-09T03:18:06;99288.31;;;20.10;48.61
68366;BME280;55283;51.466;5.478;2023-01-09T03:20:33;99289.53;;;20.09;48.50
68366;BME280;55283;51.466;5.478;2023-01-09T03:23:01;99300.84;;;20.15;48.78
68366;BME280;55283;51.466;5.478;2023-01-09T03:25:28;99300.41;;;20.07;48.65
68366;BME280;55283;51.466;5.478;2023-01-09T03:27:57;99298.88;;;20.06;48.94
68366;BME280;55283;51.466;5.478;2023-01-09T03:30:24;99307.69;;;20.14;48.75
68366;BME280;55283;51.466;5.478;2023-01-09T03:32:50;99318.28;;;20.10;48.76
68366;BME280;55283;51.466;5.478;2023-01-09T03:35:15;99313.75;;;20.12;48.68
68366;BME280;55283;51.466;5.478;2023-01-09T03:37:41;99306.81;;;20.08;48.46
68366;BME280;55283;51.466;5.478;2023-01-09T03:40:07;99309.88;;;20.10;48.52
68366;BME280;55283;51.466;5.478;2023-01-09T03:42:33;99292.69;;;20.02;48.44
68366;BME280;55283;51.466;5.478;2023-01-09T03:44:58;99313.75;;;20.12;48.58
68366;BME280;55283;51.466;5.478;2023-01-09T03:47:23;99309.88;;;20.10;48.45
68366;BME280;55283;51.466;5.478;2023-01-09T03:49:49;99310.38;;;20.08;48.60
68366;BME280;55283;51.466;5.478;2023-01-09T03:52:14;99301.97;;;20.08;48.73
68366;BME280;55283;51.466;5.478;2023-01-09T03:54:39;99318.00;;;20.08;48.83
68366;BME280;55283;51.466;5.478;2023-01-09T03:57:05;99309.59;;;20.08;48.86
68366;BME280;55283;51.466;5.478;2023-01-09T03:59:30;99308.81;;;20.07;48.56
68366;BME280;55283;51.466;5.478;2023-01-09T04:01:56;99320.78;;;20.08;48.53
68366;BME280;55283;51.466;5.478;2023-01-09T04:04:21;99311.91;;;20.09;48.62
68366;BME280;55283;51.466;5.478;2023-01-09T04:06:47;99307.28;;;20.06;48.71
68366;BME280;55283;51.466;5.478;2023-01-09T04:09:12;99319.72;;;20.05;48.62
68366;BME280;55283;51.466;5.478;2023-01-09T04:11:37;99316.44;;;20.07;48.79
68366;BME280;55283;51.466;5.478;2023-01-09T04:14:03;99310.56;;;20.05;48.51
68366;BME280;55283;51.466;5.478;2023-01-09T04:16:28;99303.13;;;20.02;48.76
68366;BME280;55283;51.466;5.478;2023-01-09T04:18:54;99307.91;;;20.01;48.78
68366;BME280;55283;51.466;5.478;2023-01-09T04:21:19;99316.59;;;20.03;48.71
68366;BME280;55283;51.466;5.478;2023-01-09T04:23:45;99314.75;;;20.00;48.51
68366;BME280;55283;51.466;5.478;2023-01-09T04:26:10;99311.97;;;20.00;48.62
68366;BME280;55283;51.466;5.478;2023-01-09T04:28:36;99304.97;;;20.05;48.46
68366;BME280;55283;51.466;5.478;2023-01-09T04:31:01;99309.28;;;20.06;48.52
68366;BME280;55283;51.466;5.478;2023-01-09T04:33:27;99313.16;;;20.08;48.58
68366;BME280;55283;51.466;5.478;2023-01-09T04:35:53;99305.72;;;20.05;48.71
68366;BME280;55283;51.466;5.478;2023-01-09T04:38:18;99313.16;;;20.08;48.53
68366;BME280;55283;51.466;5.478;2023-01-09T04:40:46;99321.38;;;20.12;48.37
68366;BME280;55283;51.466;5.478;2023-01-09T04:43:12;99316.72;;;20.09;48.57
68366;BME280;55283;51.466;5.478;2023-01-09T04:45:37;99306.00;;;20.07;48.47
68366;BME280;55283;51.466;5.478;2023-01-09T04:48:03;99311.59;;;20.07;48.50
68366;BME280;55283;51.466;5.478;2023-01-09T04:50:29;99305.72;;;20.05;48.48
68366;BME280;55283;51.466;5.478;2023-01-09T04:52:54;99313.16;;;20.08;48.44
68366;BME280;55283;51.466;5.478;2023-01-09T04:55:21;99312.88;;;20.06;48.28
68366;BME280;55283;51.466;5.478;2023-01-09T04:57:46;99317.50;;;20.09;48.33
68366;BME280;55283;51.466;5.478;2023-01-09T05:00:12;99309.13;;;20.09;48.19
68366;BME280;55283;51.466;5.478;2023-01-09T05:02:38;99306.81;;;20.08;48.36
68366;BME280;55283;51.466;5.478;2023-01-09T05:05:05;99303.22;;;20.07;48.46
68366;BME280;55283;51.466;5.478;2023-01-09T05:07:31;99308.53;;;20.05;48.47
68366;BME280;55283;51.466;5.478;2023-01-09T05:09:56;99307.91;;;20.01;48.36
68366;BME280;55283;51.466;5.478;2023-01-09T05:12:22;99307.28;;;20.06;48.38
68366;BME280;55283;51.466;5.478;2023-01-09T05:14:47;99311.13;;;20.09;48.40
68366;BME280;55283;51.466;5.478;2023-01-09T05:17:12;99294.22;;;20.03;47.98
68366;BME280;55283;51.466;5.478;2023-01-09T05:19:38;99300.31;;;20.02;48.26
68366;BME280;55283;51.466;5.478;2023-01-09T05:22:03;99308.03;;;20.07;48.21
68366;BME280;55283;51.466;5.478;2023-01-09T05:24:29;99306.00;;;20.07;48.40
68366;BME280;55283;51.466;5.478;2023-01-09T05:26:54;99312.56;;;20.04;48.46
68366;BME280;55283;51.466;5.478;2023-01-09T05:29:20;99299.25;;;19.99;48.38
68366;BME280;55283;51.466;5.478;2023-01-09T05:31:45;99306.50;;;20.06;48.33
68366;BME280;55283;51.466;5.478;2023-01-09T05:34:11;99312.56;;;20.04;48.68
68366;BME280;55283;51.466;5.478;2023-01-09T05:36:36;99304.66;;;20.03;48.47
68366;BME280;55283;51.466;5.478;2023-01-09T05:39:02;99287.09;;;20.02;48.47
68366;BME280;55283;51.466;5.478;2023-01-09T05:41:28;99291.94;;;20.02;48.37
68366;BME280;55283;51.466;5.478;2023-01-09T05:43:53;99289.28;;;19.98;48.69
68366;BME280;55283;51.466;5.478;2023-01-09T05:46:18;99291.75;;;20.05;48.33
68366;BME280;55283;51.466;5.478;2023-01-09T05:48:44;99287.38;;;20.04;48.14
68366;BME280;55283;51.466;5.478;2023-01-09T05:51:10;99279.00;;;20.04;48.21
68366;BME280;55283;51.466;5.478;2023-01-09T05:53:36;99275.72;;;20.06;48.24
68366;BME280;55283;51.466;5.478;2023-01-09T05:56:01;99285.53;;;20.01;48.13
68366;BME280;55283;51.466;5.478;2023-01-09T05:58:27;99281.50;;;20.02;48.47
68366;BME280;55283;51.466;5.478;2023-01-09T06:00:53;99283.81;;;20.04;48.26
68366;BME280;55283;51.466;5.478;2023-01-09T06:03:18;99271.84;;;20.03;47.92
68366;BME280;55283;51.466;5.478;2023-01-09T06:05:44;99280.56;;;20.05;48.15
68366;BME280;55283;51.466;5.478;2023-01-09T06:08:09;99281.50;;;20.02;48.42
68366;BME280;55283;51.466;5.478;2023-01-09T06:10:35;99274.97;;;20.05;48.11
68366;BME280;55283;51.466;5.478;2023-01-09T06:13:00;99280.56;;;20.05;48.11
68366;BME280;55283;51.466;5.478;2023-01-09T06:15:25;99271.09;;;20.03;48.30
68366;BME280;55283;51.466;5.478;2023-01-09T06:17:51;99267.53;;;20.02;48.31
68366;BME280;55283;51.466;5.478;2023-01-09T06:20:16;99273.41;;;20.04;48.09
68366;BME280;55283;51.466;5.478;2023-01-09T06:22:42;99268.59;;;20.05;48.22
68366;BME280;55283;51.466;5.478;2023-01-09T06:25:09;99273.56;;;20.01;48.10
68366;BME280;55283;51.466;5.478;2023-01-09T06:27:35;99282.75;;;20.01;48.70
68366;BME280;55283;51.466;5.478;2023-01-09T06:30:00;99284.78;;;20.01;48.61
68366;BME280;55283;51.466;5.478;2023-01-09T06:32:25;99288.81;;;20.00;48.93
68366;BME280;55283;51.466;5.478;2023-01-09T06:34:51;99294.88;;;19.98;49.18
68366;BME280;55283;51.466;5.478;2023-01-09T06:37:16;99294.59;;;19.96;49.62
68366;BME280;55283;51.466;5.478;2023-01-09T06:39:42;99280.50;;;19.90;49.87
68366;BME280;55283;51.466;5.478;2023-01-09T06:42:07;99288.13;;;19.90;49.99
68366;BME280;55283;51.466;5.478;2023-01-09T06:44:32;99300.34;;;19.93;50.30
68366;BME280;55283;51.466;5.478;2023-01-09T06:47:03;99296.59;;;19.96;50.23
68366;BME280;55283;51.466;5.478;2023-01-09T06:49:29;99287.16;;;19.93;50.36
68366;BME280;55283;51.466;5.478;2023-01-09T06:51:54;99300.19;;;19.96;50.30
68366;BME280;55283;51.466;5.478;2023-01-09T06:54:21;99306.38;;;20.00;50.27
68366;BME280;55283;51.466;5.478;2023-01-09T06:56:46;99275.91;;;20.02;49.88
68366;BME280;55283;51.466;5.478;2023-01-09T06:59:12;99296.72;;;20.01;50.21
68366;BME280;55283;51.466;5.478;2023-01-09T07:01:37;99292.81;;;20.08;51.51
68366;BME280;55283;51.466;5.478;2023-01-09T07:04:07;99307.50;;;20.18;50.27
68366;BME280;55283;51.466;5.478;2023-01-09T07:06:34;99306.25;;;20.19;51.00
68366;BME280;55283;51.466;5.478;2023-01-09T07:09:00;99305.97;;;20.17;51.29
68366;BME280;55283;51.466;5.478;2023-01-09T07:11:25;99317.44;;;20.19;51.35
68366;BME280;55283;51.466;5.478;2023-01-09T07:13:51;99308.16;;;20.12;50.23
68366;BME280;55283;51.466;5.478;2023-01-09T07:16:16;99317.03;;;20.11;50.62
68366;BME280;55283;51.466;5.478;2023-01-09T07:18:41;99333.06;;;20.10;50.33
68366;BME280;55283;51.466;5.478;2023-01-09T07:21:07;99318.75;;;20.08;50.57
68366;BME280;55283;51.466;5.478;2023-01-09T07:23:33;99329.38;;;19.95;46.63
68366;BME280;55283;51.466;5.478;2023-01-09T07:25:59;99340.66;;;19.77;44.50
68366;BME280;55283;51.466;5.478;2023-01-09T07:28:24;99347.53;;;19.66;43.76
68366;BME280;55283;51.466;5.478;2023-01-09T07:30:50;99357.81;;;19.60;42.11
68366;BME280;55283;51.466;5.478;2023-01-09T07:33:15;99359.38;;;19.52;43.45
68366;BME280;55283;51.466;5.478;2023-01-09T07:35:41;99352.09;;;19.45;43.17
68366;BME280;55283;51.466;5.478;2023-01-09T07:38:06;99352.41;;;19.48;44.91
68366;BME280;55283;51.466;5.478;2023-01-09T07:40:32;99349.78;;;19.44;46.12
68366;BME280;55283;51.466;5.478;2023-01-09T07:42:58;99352.72;;;19.50;46.78
68366;BME280;55283;51.466;5.478;2023-01-09T07:45:23;99359.84;;;19.51;46.65
68366;BME280;55283;51.466;5.478;2023-01-09T07:47:49;99379.72;;;19.53;47.25
68366;BME280;55283;51.466;5.478;2023-01-09T07:50:16;99360.78;;;19.57;46.94
68366;BME280;55283;51.466;5.478;2023-01-09T07:52:43;99374.28;;;19.58;47.74
68366;BME280;55283;51.466;5.478;2023-01-09T07:55:09;99378.16;;;19.61;47.79
68366;BME280;55283;51.466;5.478;2023-01-09T07:57:34;99387.78;;;19.60;47.65
68366;BME280;55283;51.466;5.478;2023-01-09T08:00:00;99380.66;;;19.59;47.83
68366;BME280;55283;51.466;5.478;2023-01-09T08:02:28;99383.44;;;19.59;48.00
68366;BME280;55283;51.466;5.478;2023-01-09T08:04:53;99387.78;;;19.60;48.05
68366;BME280;55283;51.466;5.478;2023-01-09T08:07:18;99396.47;;;19.53;48.05
68366;BME280;55283;51.466;5.478;2023-01-09T08:09:44;99400.38;;;19.55;47.87
68366;BME280;55283;51.466;5.478;2023-01-09T08:12:09;99406.59;;;19.59;48.25
68366;BME280;55283;51.466;5.478;2023-01-09T08:14:34;99388.28;;;19.58;48.75
68366;BME280;55283;51.466;5.478;2023-01-09T08:17:00;99407.97;;;19.64;49.04
68366;BME280;55283;51.466;5.478;2023-01-09T08:19:27;99415.13;;;19.65;49.19
68366;BME280;55283;51.466;5.478;2023-01-09T08:21:52;99412.78;;;19.63;48.84
68366;BME280;55283;51.466;5.478;2023-01-09T08:24:17;99415.09;;;19.74;49.02
68366;BME280;55283;51.466;5.478;2023-01-09T08:26:43;99423.00;;;19.76;48.94
68366;BME280;55283;51.466;5.478;2023-01-09T08:29:09;99424.06;;;19.78;49.65
68366;BME280;55283;51.466;5.478;2023-01-09T08:31:35;99428.75;;;19.81;49.14
68366;BME280;55283;51.466;5.478;2023-01-09T08:34:00;99436.81;;;19.79;49.22
68366;BME280;55283;51.466;5.478;2023-01-09T08:36:26;99445.81;;;19.83;49.49
68366;BME280;55283;51.466;5.478;2023-01-09T08:38:51;99447.84;;;19.83;49.22
68366;BME280;55283;51.466;5.478;2023-01-09T08:41:17;99448.19;;;19.76;49.40
68366;BME280;55283;51.466;5.478;2023-01-09T08:44:01;99455.31;;;19.77;49.52
68366;BME280;55283;51.466;5.478;2023-01-09T08:46:45;99455.00;;;19.75;49.22
68366;BME280;55283;51.466;5.478;2023-01-09T08:49:29;99465.56;;;19.80;49.03
68366;BME280;55283;51.466;5.478;2023-01-09T08:51:54;99473.47;;;19.72;49.36
68366;BME280;55283;51.466;5.478;2023-01-09T08:54:20;99477.69;;;19.77;49.34
68366;BME280;55283;51.466;5.478;2023-01-09T08:56:45;99482.66;;;19.82;49.11
68366;BME280;55283;51.466;5.478;2023-01-09T08:59:11;99480.78;;;19.79;48.67
68366;BME280;55283;51.466;5.478;2023-01-09T09:01:36;99491.34;;;19.75;47.67
68366;BME280;55283;51.466;5.478;2023-01-09T09:04:02;99502.06;;;19.76;48.56
68366;BME280;55283;51.466;5.478;2023-01-09T09:06:29;99507.19;;;19.78;49.77
68366;BME280;55283;51.466;5.478;2023-01-09T09:08:55;99508.88;;;19.75;49.04
68366;BME280;55283;51.466;5.478;2023-01-09T09:11:20;99512.78;;;19.78;49.05
68366;BME280;55283;51.466;5.478;2023-01-09T09:13:45;99517.59;;;19.77;49.78
68366;BME280;55283;51.466;5.478;2023-01-09T09:16:11;99521.31;;;19.83;49.42
68366;BME280;55283;51.466;5.478;2023-01-09T09:18:36;99515.88;;;19.80;49.59
68366;BME280;55283;51.466;5.478;2023-01-09T09:21:02;99533.13;;;19.87;49.51
68366;BME280;55283;51.466;5.478;2023-01-09T09:23:27;99532.81;;;19.85;49.55
68366;BME280;55283;51.466;5.478;2023-01-09T09:25:52;99539.34;;;19.82;49.55
68366;BME280;55283;51.466;5.478;2023-01-09T09:28:18;99543.69;;;19.83;49.42
68366;BME280;55283;51.466;5.478;2023-01-09T09:30:43;99547.56;;;19.86;49.42
68366;BME280;55283;51.466;5.478;2023-01-09T09:33:09;99545.72;;;19.83;49.35
68366;BME280;55283;51.466;5.478;2023-01-09T09:35:35;99567.63;;;19.84;49.42
68366;BME280;55283;51.466;5.478;2023-01-09T09:38:03;99562.03;;;19.84;49.42
68366;BME280;55283;51.466;5.478;2023-01-09T09:49:01;99581.28;;;19.73;49.64
68366;BME280;55283;51.466;5.478;2023-01-09T09:51:55;99605.38;;;19.80;49.51
68366;BME280;55283;51.466;5.478;2023-01-09T09:54:32;99601.31;;;19.81;49.49
68366;BME280;55283;51.466;5.478;2023-01-09T09:57:01;99603.97;;;19.75;49.59
68366;BME280;55283;51.466;5.478;2023-01-09T09:59:30;99610.19;;;19.79;49.50
68366;BME280;55283;51.466;5.478;2023-01-09T10:04:54;99621.03;;;19.86;49.42
68366;BME280;55283;51.466;5.478;2023-01-09T10:07:24;99631.28;;;19.89;49.20
68366;BME280;55283;51.466;5.478;2023-01-09T10:10:02;99635.34;;;19.88;49.24
68366;BME280;55283;51.466;5.478;2023-01-09T10:12:38;99642.66;;;19.86;49.40
68366;BME280;55283;51.466;5.478;2023-01-09T10:15:18;99646.84;;;19.90;49.19
68366;BME280;55283;51.466;5.478;2023-01-09T10:20:33;99642.47;;;19.89;49.60
68366;BME280;55283;51.466;5.478;2023-01-09T10:26:05;99651.97;;;19.92;49.40
68366;BME280;55283;51.466;5.478;2023-01-09T10:31:52;99672.78;;;19.91;49.55
68366;BME280;55283;51.466;5.478;2023-01-09T10:34:29;99663.47;;;19.85;49.60
68366;BME280;55283;51.466;5.478;2023-01-09T10:39:40;99669.69;;;19.89;49.56
68366;BME280;55283;51.466;5.478;2023-01-09T10:42:32;99678.69;;;19.84;49.94
68366;BME280;55283;51.466;5.478;2023-01-09T10:46:01;99674.19;;;19.86;49.56
68366;BME280;55283;51.466;5.478;2023-01-09T10:48:29;99680.53;;;19.87;50.19
68366;BME280;55283;51.466;5.478;2023-01-09T10:50:56;99675.91;;;19.93;49.56
68366;BME280;55283;51.466;5.478;2023-01-09T10:53:26;99691.59;;;19.90;49.71
68366;BME280;55283;51.466;5.478;2023-01-09T10:56:00;99681.03;;;19.95;49.78
68366;BME280;55283;51.466;5.478;2023-01-09T10:58:29;99683.06;;;19.94;49.26
68366;BME280;55283;51.466;5.478;2023-01-09T11:00:55;99680.88;;;19.98;49.20
68366;BME280;55283;51.466;5.478;2023-01-09T11:03:26;99681.19;;;19.91;49.79
68366;BME280;55283;51.466;5.478;2023-01-09T11:05:54;99686.63;;;19.95;49.92
68366;BME280;55283;51.466;5.478;2023-01-09T11:08:33;99692.06;;;19.98;49.67
68366;BME280;55283;51.466;5.478;2023-01-09T11:11:02;99692.38;;;20.00;49.38
68366;BME280;55283;51.466;5.478;2023-01-09T11:13:29;99688.81;;;20.00;49.44
68366;BME280;55283;51.466;5.478;2023-01-09T11:18:28;99698.13;;;19.97;49.76
68366;BME280;55283;51.466;5.478;2023-01-09T11:20:54;99696.25;;;19.94;50.27
68366;BME280;55283;51.466;5.478;2023-01-09T11:23:29;99699.22;;;19.90;50.58
68366;BME280;55283;51.466;5.478;2023-01-09T11:25:57;99703.25;;;19.89;50.62
68366;BME280;55283;51.466;5.478;2023-01-09T11:28:23;99698.91;;;19.88;50.84
68366;BME280;55283;51.466;5.478;2023-01-09T11:33:23;99699.66;;;19.88;51.07
68366;BME280;55283;51.466;5.478;2023-01-09T11:38:20;99712.44;;;19.99;51.75
68366;BME280;55283;51.466;5.478;2023-01-09T11:40:50;99723.31;;;20.06;51.38
68366;BME280;55283;51.466;5.478;2023-01-09T11:45:48;99724.72;;;20.20;50.21
68366;BME280;55283;51.466;5.478;2023-01-09T11:48:37;99732.19;;;20.23;50.59
68366;BME280;55283;51.466;5.478;2023-01-09T11:51:18;99734.66;;;20.21;50.39
68366;BME280;55283;51.466;5.478;2023-01-09T11:53:52;99727.34;;;20.23;50.42
68366;BME280;55283;51.466;5.478;2023-01-09T11:56:21;99727.03;;;20.30;50.14
68366;BME280;55283;51.466;5.478;2023-01-09T11:58:46;99735.75;;;20.32;50.08
68366;BME280;55283;51.466;5.478;2023-01-09T12:10:01;99737.78;;;20.23;50.42
68366;BME280;55283;51.466;5.478;2023-01-09T12:15:27;99743.53;;;20.28;50.23
68366;BME280;55283;51.466;5.478;2023-01-09T12:21:40;99728.75;;;20.19;49.45
68366;BME280;55283;51.466;5.478;2023-01-09T12:38:19;99756.09;;;20.24;49.92
68366;BME280;55283;51.466;5.478;2023-01-09T12:43:49;99758.91;;;20.24;49.78
68366;BME280;55283;51.466;5.478;2023-01-09T12:46:20;99757.19;;;20.26;49.64
68366;BME280;55283;51.466;5.478;2023-01-09T12:56:46;99761.38;;;20.22;50.10
68366;BME280;55283;51.466;5.478;2023-01-09T13:04:45;99770.25;;;20.29;49.87
68366;BME280;55283;51.466;5.478;2023-01-09T13:07:21;99779.75;;;20.23;50.18
68366;BME280;55283;51.466;5.478;2023-01-09T13:09:57;99779.44;;;20.30;50.00
68366;BME280;55283;51.466;5.478;2023-01-09T13:12:24;99779.75;;;20.32;49.63
68366;BME280;55283;51.466;5.478;2023-01-09T13:15:01;99790.94;;;20.32;49.92
68366;BME280;55283;51.466;5.478;2023-01-09T13:20:31;99807.25;;;20.33;49.90
68366;BME280;55283;51.466;5.478;2023-01-09T13:22:54;99807.25;;;20.33;49.82
68366;BME280;55283;51.466;5.478;2023-01-09T13:25:32;99815.03;;;20.29;49.67
68366;BME280;55283;51.466;5.478;2023-01-09T13:28:06;99818.44;;;20.33;50.03
68366;BME280;55283;51.466;5.478;2023-01-09T13:35:49;99835.56;;;20.26;49.98
68366;BME280;55283;51.466;5.478;2023-01-09T13:38:21;99846.44;;;20.24;50.25
68366;BME280;55283;51.466;5.478;2023-01-09T13:41:01;99846.59;;;20.30;50.01
68366;BME280;55283;51.466;5.478;2023-01-09T13:43:53;99849.25;;;20.33;49.68
68366;BME280;55283;51.466;5.478;2023-01-09T13:46:19;99848.16;;;20.31;49.77
68366;BME280;55283;51.466;5.478;2023-01-09T13:48:45;99853.03;;;20.40;49.59
68366;BME280;55283;51.466;5.478;2023-01-09T13:54:09;99859.41;;;20.40;49.79
68366;BME280;55283;51.466;5.478;2023-01-09T13:59:41;99859.41;;;20.40;49.66
68366;BME280;55283;51.466;5.478;2023-01-09T14:05:02;99866.50;;;20.23;50.03
68366;BME280;55283;51.466;5.478;2023-01-09T14:07:33;99877.03;;;20.19;50.09
68366;BME280;55283;51.466;5.478;2023-01-09T14:10:02;99894.63;;;20.19;49.99
68366;BME280;55283;51.466;5.478;2023-01-09T14:12:31;99899.56;;;20.15;50.15
68366;BME280;55283;51.466;5.478;2023-01-09T14:15:02;99897.25;;;20.13;50.18
68366;BME280;55283;51.466;5.478;2023-01-09T14:17:36;99900.34;;;20.16;50.07
68366;BME280;55283;51.466;5.478;2023-01-09T14:20:07;99902.22;;;20.19;49.92
68366;BME280;55283;51.466;5.478;2023-01-09T14:22:55;99905.81;;;20.19;49.91
68366;BME280;55283;51.466;5.478;2023-01-09T14:25:24;99927.13;;;20.17;49.97
68366;BME280;55283;51.466;5.478;2023-01-09T14:36:17;99929.56;;;20.05;50.29
68366;BME280;55283;51.466;5.478;2023-01-09T14:38:51;99951.63;;;20.12;50.49
68366;BME280;55283;51.466;5.478;2023-01-09T14:44:21;99962.56;;;20.20;49.87
68366;BME280;55283;51.466;5.478;2023-01-09T14:46:49;99967.31;;;20.10;50.11
68366;BME280;55283;51.466;5.478;2023-01-09T14:49:30;99971.56;;;20.15;49.95
68366;BME280;55283;51.466;5.478;2023-01-09T14:52:02;99978.84;;;20.12;50.02
68366;BME280;55283;51.466;5.478;2023-01-09T14:54:40;99983.66;;;20.11;50.16
68366;BME280;55283;51.466;5.478;2023-01-09T14:57:45;99988.97;;;20.19;49.67
68366;BME280;55283;51.466;5.478;2023-01-09T15:00:17;99997.38;;;20.19;49.98
68366;BME280;55283;51.466;5.478;2023-01-09T15:02:44;100004.34;;;20.14;49.76
68366;BME280;55283;51.466;5.478;2023-01-09T15:05:16;100008.53;;;20.09;50.01
68366;BME280;55283;51.466;5.478;2023-01-09T15:10:18;100024.25;;;20.16;49.86
68366;BME280;55283;51.466;5.478;2023-01-09T15:12:46;100028.03;;;20.22;49.50
68366;BME280;55283;51.466;5.478;2023-01-09T15:15:14;100051.50;;;20.25;49.62
68366;BME280;55283;51.466;5.478;2023-01-09T15:17:44;100049.63;;;20.22;49.29
68366;BME280;55283;51.466;5.478;2023-01-09T15:20:30;100061.66;;;20.31;49.31
68366;BME280;55283;51.466;5.478;2023-01-09T15:22:57;100061.81;;;20.28;49.39